Terminal Aerodrome Forecast
Issued by NWS Grand Forks, ND

Home | Current Version | Previous Version | Text Only | Print | Product List | Glossary On
Versions: 1 2 3 4 5 6 7 8 9 10 11 12 13
831
FTUS43 KFGF 240520
TAFGFK
TAF
KGFK 240520Z 2406/2506 35010KT P6SM BKN120
     FM241500 35013G19KT P6SM FEW250
     FM250100 VRB05KT P6SM FEW250=

USA.gov is the U.S. government's official web portal to all federal, state and local government web resources and services.